TAF PGRO
AMD PGRO 080231Z 0803/0824 07012KT P6SM VCSH SCT016=
METAR PGRO
WC PGRO
WS PGRO
WV PGRO